Judi M. — WCX8376 — position and weather

sailwx.info

Track history (hours):
 
Tides and Currents Weather Stations Pressure Air Temp Water Temp Dewpoint Dewpoint Depression Visibility Wind Speed Wind Dir Waves Ship Positions

Judi M.

Owner: MANKE TUG & BARGE CO INC, SHELTON, WA. More information available from US FCC via Universal Licensing System and Coast Guard Vessel Documentation Center.

Last reported at 2015-Aug-01 07:56 UTC. Time now 2015-Aug-03 02:31 UTC.
Position N 47°34' W 122°22'.

Length 29 m; draft 4 m.

Type: Tow > 200 m length. MMSI: 366740920.

Date/timePositionNaut miles runAvg speedWind from/ knotsBaromVisibWave heightAir tempDewpointWater temp
2015-Aug-01 07:56N 47°34' W 122°22'0 0.3
2015-Aug-01 07:34N 47°35' W 122°22'0 3.1
2015-Aug-01 07:31N 47°35' W 122°22'4 4.0
2015-Aug-01 06:34N 47°37' W 122°26'0 6.2
2015-Aug-01 06:31N 47°38' W 122°26'4 6.3
2015-Aug-01 05:51N 47°42' W 122°28'2 6.7
2015-Aug-01 05:33N 47°43' W 122°27'6 6.4
2015-Aug-01 04:33N 47°50' W 122°28'0 6.6
2015-Aug-01 04:31N 47°50' W 122°28'6 5.9
2015-Aug-01 03:33N 47°55' W 122°31'0 5.3
2015-Aug-01 03:31N 47°56' W 122°31'7 6.1
2015-Aug-01 02:20N 48°01' W 122°38'0 6.4
2015-Aug-01 02:16N 48°01' W 122°38'6 0.4
2015-Jul-31 11:31N 48°06' W 122°45'6 6.0
2015-Jul-31 10:31N 48°02' W 122°38'2 7.1
2015-Jul-31 10:14N 48°01' W 122°36'5 7.3
2015-Jul-31 09:34N 47°57' W 122°32'1 7.8
2015-Jul-31 09:28N 47°56' W 122°31'7 7.9
2015-Jul-31 08:34N 47°50' W 122°27'010.8
2015-Jul-31 08:33N 47°50' W 122°27'8 8.0
2015-Jul-31 07:34N 47°42' W 122°27'021.6
2015-Jul-31 07:34N 47°42' W 122°27'7 7.1
2015-Jul-31 06:34N 47°35' W 122°22'0 0.0
2015-Jul-31 06:33N 47°35' W 122°22'  
2015-Jul-28 21:24N 47°34' W 122°22'0 0.1
2015-Jul-28 21:20N 47°34' W 122°22'0 0.0
2015-Jul-28 20:33N 47°34' W 122°22'0 0.0
2015-Jul-28 20:30N 47°34' W 122°22'3 3.0
2015-Jul-28 19:33N 47°37' W 122°24'0 7.7
2015-Jul-28 19:30N 47°37' W 122°25'6 6.7
2015-Jul-28 18:33N 47°43' W 122°28'0 7.7
2015-Jul-28 18:30N 47°43' W 122°28'7 7.3
2015-Jul-28 17:33N 47°50' W 122°28'0 7.0
2015-Jul-28 17:30N 47°51' W 122°29'6 6.5
2015-Jul-28 16:33N 47°56' W 122°32'0 6.2
2015-Jul-28 16:30N 47°56' W 122°33'5 5.5
2015-Jul-28 15:32N 48°01' W 122°37'9 4.3
2015-Jul-28 13:23N 48°10' W 122°42'3 4.0
2015-Jul-28 12:31N 48°12' W 122°45'11 5.6
2015-Jul-28 10:32N 48°23' W 122°45'4 6.3
2015-Jul-28 09:54N 48°27' W 122°45'2 6.0
2015-Jul-28 09:33N 48°29' W 122°45'3 6.0
2015-Jul-28 09:04N 48°32' W 122°45'3 5.6
2015-Jul-28 08:34N 48°35' W 122°46'6 5.6
2015-Jul-28 07:33N 48°40' W 122°43'6 5.9
2015-Jul-28 06:33N 48°45' W 122°48'7 7.3
2015-Jul-28 05:33N 48°49' W 122°58'8 7.8
2015-Jul-28 04:33N 48°54' W 123°08'8 7.9
2015-Jul-28 03:33N 48°59' W 123°17'8 7.5
2015-Jul-28 02:33N 49°04' W 123°25'7 7.1
2015-Jul-28 01:33N 49°11' W 123°28'7 7.2
2015-Jul-28 00:33N 49°18' W 123°27'7 6.9
2015-Jul-27 23:33N 49°25' W 123°26'6 6.3
2015-Jul-27 22:33N 49°31' W 123°29'0 0.1
2015-Jul-27 21:33N 49°31' W 123°29'0 0.0
2015-Jul-27 20:33N 49°31' W 123°29'0 0.0
2015-Jul-27 19:33N 49°31' W 123°29'0 0.0
2015-Jul-27 18:33N 49°31' W 123°29'0 0.0
2015-Jul-27 17:33N 49°31' W 123°29'0 0.0
2015-Jul-27 16:33N 49°31' W 123°29'0 0.0
2015-Jul-27 15:33N 49°31' W 123°29'0 0.0
2015-Jul-27 14:33N 49°31' W 123°29'0 0.0
2015-Jul-27 13:33N 49°31' W 123°29'5 5.5
2015-Jul-27 12:33N 49°26' W 123°27'7 7.3
2015-Jul-27 11:33N 49°18' W 123°27'7 7.3
2015-Jul-27 10:33N 49°11' W 123°26'7 6.9
2015-Jul-27 09:33N 49°05' W 123°21'7 7.0
2015-Jul-27 08:33N 49°00' W 123°14'7 7.4
2015-Jul-27 07:33N 48°55' W 123°05'8 8.3
2015-Jul-27 06:33N 48°50' W 122°56'8 8.1
2015-Jul-27 05:33N 48°45' W 122°46'7 7.0
2015-Jul-27 04:33N 48°38' W 122°44'5 7.3
2015-Jul-27 03:55N 48°33' W 122°45'3 7.5
2015-Jul-27 03:33N 48°31' W 122°44'20 7.3
2015-Jul-27 00:45N 48°10' W 122°44'11 9.0
2015-Jul-26 23:32N 48°01' W 122°36'7 9.0
2015-Jul-26 22:45N 47°55' W 122°29'2 8.2
2015-Jul-26 22:33N 47°54' W 122°28'0 7.7
2015-Jul-26 22:30N 47°53' W 122°28'8 8.4
2015-Jul-26 21:33N 47°46' W 122°25'0 8.2
2015-Jul-26 21:30N 47°45' W 122°25'7 7.8
2015-Jul-26 20:33N 47°38' W 122°26'0 7.7
2015-Jul-26 20:30N 47°38' W 122°25'4 0.1
2015-Jul-25 06:56N 47°34' W 122°22'0 0.1
2015-Jul-25 06:33N 47°34' W 122°22'0 1.3
2015-Jul-25 06:31N 47°35' W 122°22'1 1.9
2015-Jul-25 06:06N 47°35' W 122°22'2 3.2
2015-Jul-25 05:33N 47°36' W 122°24'6 6.2
2015-Jul-25 04:33N 47°42' W 122°28'0 6.9
2015-Jul-25 04:30N 47°42' W 122°28'7 7.1
2015-Jul-25 03:33N 47°49' W 122°28'0 6.8
2015-Jul-25 03:30N 47°49' W 122°28'7 7.0
2015-Jul-25 02:33N 47°56' W 122°31'0 7.4
2015-Jul-25 02:30N 47°56' W 122°32'6 6.8
2015-Jul-25 01:33N 48°01' W 122°38'4 0.2
2015-Jul-24 10:26N 48°04' W 122°38'110.1
2015-Jul-24 10:18N 48°03' W 122°38'7 9.6
2015-Jul-24 09:33N 47°57' W 122°32'0 6.1
2015-Jul-24 09:33N 47°57' W 122°32'8 8.2
2015-Jul-24 08:33N 47°50' W 122°27'010.0
2015-Jul-24 08:33N 47°50' W 122°27'8 7.7
2015-Jul-24 07:33N 47°42' W 122°27'0 7.2
2015-Jul-24 07:33N 47°42' W 122°27'6 6.4
2015-Jul-24 06:33N 47°36' W 122°22'0 0.0
2015-Jul-24 06:33N 47°36' W 122°22'2 4.0
2015-Jul-24 06:03N 47°34' W 122°22'  
Track history (hours):
 
Tides and Currents Weather Stations Pressure Air Temp Water Temp Dewpoint Dewpoint Depression Visibility Wind Speed Wind Dir Waves Ship Positions

Judi M.

Owner: MANKE TUG & BARGE CO INC, SHELTON, WA. More information available from US FCC via Universal Licensing System and Coast Guard Vessel Documentation Center.

Last reported at 2015-Aug-01 07:56 UTC. Time now 2015-Aug-03 02:31 UTC.
Position N 47°34' W 122°22'.

Length 29 m; draft 4 m.

Type: Tow > 200 m length. MMSI: 366740920.

Date/timePositionNaut miles runAvg speedWind from/ knotsBaromVisibWave heightAir tempDewpointWater temp
2015-Aug-01 07:56N 47°34' W 122°22'0 0.3
2015-Aug-01 07:34N 47°35' W 122°22'0 3.1
2015-Aug-01 07:31N 47°35' W 122°22'4 4.0
2015-Aug-01 06:34N 47°37' W 122°26'0 6.2
2015-Aug-01 06:31N 47°38' W 122°26'4 6.3
2015-Aug-01 05:51N 47°42' W 122°28'2 6.7
2015-Aug-01 05:33N 47°43' W 122°27'6 6.4
2015-Aug-01 04:33N 47°50' W 122°28'0 6.6
2015-Aug-01 04:31N 47°50' W 122°28'6 5.9
2015-Aug-01 03:33N 47°55' W 122°31'0 5.3
2015-Aug-01 03:31N 47°56' W 122°31'7 6.1
2015-Aug-01 02:20N 48°01' W 122°38'0 6.4
2015-Aug-01 02:16N 48°01' W 122°38'6 0.4
2015-Jul-31 11:31N 48°06' W 122°45'6 6.0
2015-Jul-31 10:31N 48°02' W 122°38'2 7.1
2015-Jul-31 10:14N 48°01' W 122°36'5 7.3
2015-Jul-31 09:34N 47°57' W 122°32'1 7.8
2015-Jul-31 09:28N 47°56' W 122°31'7 7.9
2015-Jul-31 08:34N 47°50' W 122°27'010.8
2015-Jul-31 08:33N 47°50' W 122°27'8 8.0
2015-Jul-31 07:34N 47°42' W 122°27'021.6
2015-Jul-31 07:34N 47°42' W 122°27'7 7.1
2015-Jul-31 06:34N 47°35' W 122°22'0 0.0
2015-Jul-31 06:33N 47°35' W 122°22'  
2015-Jul-28 21:24N 47°34' W 122°22'0 0.1
2015-Jul-28 21:20N 47°34' W 122°22'0 0.0
2015-Jul-28 20:33N 47°34' W 122°22'0 0.0
2015-Jul-28 20:30N 47°34' W 122°22'3 3.0
2015-Jul-28 19:33N 47°37' W 122°24'0 7.7
2015-Jul-28 19:30N 47°37' W 122°25'6 6.7
2015-Jul-28 18:33N 47°43' W 122°28'0 7.7
2015-Jul-28 18:30N 47°43' W 122°28'7 7.3
2015-Jul-28 17:33N 47°50' W 122°28'0 7.0
2015-Jul-28 17:30N 47°51' W 122°29'6 6.5
2015-Jul-28 16:33N 47°56' W 122°32'0 6.2
2015-Jul-28 16:30N 47°56' W 122°33'5 5.5
2015-Jul-28 15:32N 48°01' W 122°37'9 4.3
2015-Jul-28 13:23N 48°10' W 122°42'3 4.0
2015-Jul-28 12:31N 48°12' W 122°45'11 5.6
2015-Jul-28 10:32N 48°23' W 122°45'4 6.3
2015-Jul-28 09:54N 48°27' W 122°45'2 6.0
2015-Jul-28 09:33N 48°29' W 122°45'3 6.0
2015-Jul-28 09:04N 48°32' W 122°45'3 5.6
2015-Jul-28 08:34N 48°35' W 122°46'6 5.6
2015-Jul-28 07:33N 48°40' W 122°43'6 5.9
2015-Jul-28 06:33N 48°45' W 122°48'7 7.3
2015-Jul-28 05:33N 48°49' W 122°58'8 7.8
2015-Jul-28 04:33N 48°54' W 123°08'8 7.9
2015-Jul-28 03:33N 48°59' W 123°17'8 7.5
2015-Jul-28 02:33N 49°04' W 123°25'7 7.1
2015-Jul-28 01:33N 49°11' W 123°28'7 7.2
2015-Jul-28 00:33N 49°18' W 123°27'7 6.9
2015-Jul-27 23:33N 49°25' W 123°26'6 6.3
2015-Jul-27 22:33N 49°31' W 123°29'0 0.1
2015-Jul-27 21:33N 49°31' W 123°29'0 0.0
2015-Jul-27 20:33N 49°31' W 123°29'0 0.0
2015-Jul-27 19:33N 49°31' W 123°29'0 0.0
2015-Jul-27 18:33N 49°31' W 123°29'0 0.0
2015-Jul-27 17:33N 49°31' W 123°29'0 0.0
2015-Jul-27 16:33N 49°31' W 123°29'0 0.0
2015-Jul-27 15:33N 49°31' W 123°29'0 0.0
2015-Jul-27 14:33N 49°31' W 123°29'0 0.0
2015-Jul-27 13:33N 49°31' W 123°29'5 5.5
2015-Jul-27 12:33N 49°26' W 123°27'7 7.3
2015-Jul-27 11:33N 49°18' W 123°27'7 7.3
2015-Jul-27 10:33N 49°11' W 123°26'7 6.9
2015-Jul-27 09:33N 49°05' W 123°21'7 7.0
2015-Jul-27 08:33N 49°00' W 123°14'7 7.4
2015-Jul-27 07:33N 48°55' W 123°05'8 8.3
2015-Jul-27 06:33N 48°50' W 122°56'8 8.1
2015-Jul-27 05:33N 48°45' W 122°46'7 7.0
2015-Jul-27 04:33N 48°38' W 122°44'5 7.3
2015-Jul-27 03:55N 48°33' W 122°45'3 7.5
2015-Jul-27 03:33N 48°31' W 122°44'20 7.3
2015-Jul-27 00:45N 48°10' W 122°44'11 9.0
2015-Jul-26 23:32N 48°01' W 122°36'7 9.0
2015-Jul-26 22:45N 47°55' W 122°29'2 8.2
2015-Jul-26 22:33N 47°54' W 122°28'0 7.7
2015-Jul-26 22:30N 47°53' W 122°28'8 8.4
2015-Jul-26 21:33N 47°46' W 122°25'0 8.2
2015-Jul-26 21:30N 47°45' W 122°25'7 7.8
2015-Jul-26 20:33N 47°38' W 122°26'0 7.7
2015-Jul-26 20:30N 47°38' W 122°25'4 0.1
2015-Jul-25 06:56N 47°34' W 122°22'0 0.1
2015-Jul-25 06:33N 47°34' W 122°22'0 1.3
2015-Jul-25 06:31N 47°35' W 122°22'1 1.9
2015-Jul-25 06:06N 47°35' W 122°22'2 3.2
2015-Jul-25 05:33N 47°36' W 122°24'6 6.2
2015-Jul-25 04:33N 47°42' W 122°28'0 6.9
2015-Jul-25 04:30N 47°42' W 122°28'7 7.1
2015-Jul-25 03:33N 47°49' W 122°28'0 6.8
2015-Jul-25 03:30N 47°49' W 122°28'7 7.0
2015-Jul-25 02:33N 47°56' W 122°31'0 7.4
2015-Jul-25 02:30N 47°56' W 122°32'6 6.8
2015-Jul-25 01:33N 48°01' W 122°38'4 0.2
2015-Jul-24 10:26N 48°04' W 122°38'110.1
2015-Jul-24 10:18N 48°03' W 122°38'7 9.6
2015-Jul-24 09:33N 47°57' W 122°32'0 6.1
2015-Jul-24 09:33N 47°57' W 122°32'8 8.2
2015-Jul-24 08:33N 47°50' W 122°27'010.0
2015-Jul-24 08:33N 47°50' W 122°27'8 7.7
2015-Jul-24 07:33N 47°42' W 122°27'0 7.2
2015-Jul-24 07:33N 47°42' W 122°27'6 6.4
2015-Jul-24 06:33N 47°36' W 122°22'0 0.0
2015-Jul-24 06:33N 47°36' W 122°22'2 4.0
2015-Jul-24 06:03N 47°34' W 122°22'  

Dump ship's entire track history